sensor_id;sensor_type;location;lat;lon;timestamp;pressure;altitude;pressure_sealevel;temperature;humidity
40794;BME280;26502;51.886;15.604;2023-04-06T00:00:15;101308.79;;;-1.03;52.35
40794;BME280;26502;51.886;15.604;2023-04-06T00:05:42;101310.87;;;-1.17;52.60
40794;BME280;26502;51.886;15.604;2023-04-06T00:10:48;101312.31;;;-1.35;52.72
40794;BME280;26502;51.886;15.604;2023-04-06T00:15:54;101312.06;;;-1.71;52.67
40794;BME280;26502;51.886;15.604;2023-04-06T00:21:01;101314.67;;;-1.77;53.27
40794;BME280;26502;51.886;15.604;2023-04-06T00:26:08;101313.46;;;-1.64;53.43
40794;BME280;26502;51.886;15.604;2023-04-06T00:31:15;101312.49;;;-1.55;53.64
40794;BME280;26502;51.886;15.604;2023-04-06T00:36:22;101308.86;;;-1.54;53.85
40794;BME280;26502;51.886;15.604;2023-04-06T00:41:29;101311.38;;;-1.58;53.81
40794;BME280;26502;51.886;15.604;2023-04-06T00:46:36;101305.62;;;-1.51;53.94
40794;BME280;26502;51.886;15.604;2023-04-06T00:51:43;101302.05;;;-1.54;53.73
40794;BME280;26502;51.886;15.604;2023-04-06T00:56:49;101301.98;;;-1.89;53.87
40794;BME280;26502;51.886;15.604;2023-04-06T01:01:56;101303.02;;;-2.01;53.93
40794;BME280;26502;51.886;15.604;2023-04-06T01:07:11;101301.98;;;-2.01;54.46
40794;BME280;26502;51.886;15.604;2023-04-06T01:12:22;101298.42;;;-2.04;54.39
40794;BME280;26502;51.886;15.604;2023-04-06T01:17:30;101299.66;;;-2.04;54.83
40794;BME280;26502;51.886;15.604;2023-04-06T01:22:42;101301.45;;;-1.89;54.83
40794;BME280;26502;51.886;15.604;2023-04-06T01:27:49;101302.54;;;-1.82;55.07
40794;BME280;26502;51.886;15.604;2023-04-06T01:33:22;101300.23;;;-1.89;54.82
40794;BME280;26502;51.886;15.604;2023-04-06T01:38:41;101301.33;;;-2.06;55.05
40794;BME280;26502;51.886;15.604;2023-04-06T01:43:48;101296.14;;;-2.11;55.22
40794;BME280;26502;51.886;15.604;2023-04-06T01:48:59;101298.14;;;-1.95;55.45
40794;BME280;26502;51.886;15.604;2023-04-06T01:54:17;101298.82;;;-2.02;55.38
40794;BME280;26502;51.886;15.604;2023-04-06T01:59:47;101300.39;;;-2.02;55.64
40794;BME280;26502;51.886;15.604;2023-04-06T02:05:04;101298.06;;;-2.16;55.36
40794;BME280;26502;51.886;15.604;2023-04-06T02:10:15;101296.15;;;-2.28;55.64
40794;BME280;26502;51.886;15.604;2023-04-06T02:15:22;101293.25;;;-2.20;55.78
40794;BME280;26502;51.886;15.604;2023-04-06T02:20:28;101295.69;;;-2.38;55.72
40794;BME280;26502;51.886;15.604;2023-04-06T02:25:34;101296.05;;;-2.54;55.81
40794;BME280;26502;51.886;15.604;2023-04-06T02:30:41;101298.80;;;-2.61;55.94
40794;BME280;26502;51.886;15.604;2023-04-06T02:35:48;101298.86;;;-2.71;56.09
40794;BME280;26502;51.886;15.604;2023-04-06T02:40:54;101302.92;;;-2.80;56.31
40794;BME280;26502;51.886;15.604;2023-04-06T02:46:02;101306.15;;;-2.77;56.70
40794;BME280;26502;51.886;15.604;2023-04-06T02:51:11;101302.90;;;-2.63;56.90
40794;BME280;26502;51.886;15.604;2023-04-06T02:56:19;101302.33;;;-2.48;56.93
40794;BME280;26502;51.886;15.604;2023-04-06T03:01:28;101307.45;;;-2.57;56.69
40794;BME280;26502;51.886;15.604;2023-04-06T03:06:37;101306.60;;;-2.56;56.96
40794;BME280;26502;51.886;15.604;2023-04-06T03:11:50;101307.73;;;-2.48;57.24
40794;BME280;26502;51.886;15.604;2023-04-06T03:16:57;101306.52;;;-2.53;57.10
40794;BME280;26502;51.886;15.604;2023-04-06T03:22:04;101311.21;;;-2.48;57.21
40794;BME280;26502;51.886;15.604;2023-04-06T03:27:11;101318.73;;;-2.47;57.13
40794;BME280;26502;51.886;15.604;2023-04-06T03:32:19;101323.63;;;-2.57;57.17
40794;BME280;26502;51.886;15.604;2023-04-06T03:37:25;101325.56;;;-2.67;57.16
40794;BME280;26502;51.886;15.604;2023-04-06T03:42:33;101328.52;;;-2.77;57.32
40794;BME280;26502;51.886;15.604;2023-04-06T03:47:44;101332.95;;;-2.81;57.45
40794;BME280;26502;51.886;15.604;2023-04-06T03:52:51;101337.27;;;-2.87;57.56
40794;BME280;26502;51.886;15.604;2023-04-06T03:57:58;101340.44;;;-2.91;57.61
40794;BME280;26502;51.886;15.604;2023-04-06T04:03:04;101347.77;;;-2.90;57.61
40794;BME280;26502;51.886;15.604;2023-04-06T04:08:11;101348.47;;;-2.95;57.69
40794;BME280;26502;51.886;15.604;2023-04-06T04:13:17;101352.20;;;-2.93;57.78
40794;BME280;26502;51.886;15.604;2023-04-06T04:18:26;101349.38;;;-3.05;57.71
40794;BME280;26502;51.886;15.604;2023-04-06T04:23:34;101348.56;;;-3.23;57.80
40794;BME280;26502;51.886;15.604;2023-04-06T04:28:41;101348.27;;;-3.17;57.98
40794;BME280;26502;51.886;15.604;2023-04-06T04:33:47;101347.69;;;-3.08;58.18
40794;BME280;26502;51.886;15.604;2023-04-06T04:38:56;101350.94;;;-2.99;58.30
40794;BME280;26502;51.886;15.604;2023-04-06T04:44:04;101351.66;;;-3.04;58.38
40794;BME280;26502;51.886;15.604;2023-04-06T04:49:10;101355.06;;;-3.16;58.45
40794;BME280;26502;51.886;15.604;2023-04-06T04:54:17;101356.23;;;-3.13;58.55
40794;BME280;26502;51.886;15.604;2023-04-06T04:59:23;101358.64;;;-3.08;58.74
40794;BME280;26502;51.886;15.604;2023-04-06T05:04:35;101359.63;;;-2.99;58.83
40794;BME280;26502;51.886;15.604;2023-04-06T05:09:45;101366.38;;;-2.90;59.05
40794;BME280;26502;51.886;15.604;2023-04-06T05:14:52;101371.63;;;-2.99;58.95
40794;BME280;26502;51.886;15.604;2023-04-06T05:20:00;101370.42;;;-3.09;59.02
40794;BME280;26502;51.886;15.604;2023-04-06T05:25:08;101371.86;;;-2.92;59.39
40794;BME280;26502;51.886;15.604;2023-04-06T05:30:16;101374.96;;;-2.72;59.57
40794;BME280;26502;51.886;15.604;2023-04-06T05:35:24;101371.58;;;-2.64;59.68
40794;BME280;26502;51.886;15.604;2023-04-06T05:40:32;101371.52;;;-2.55;59.80
40794;BME280;26502;51.886;15.604;2023-04-06T05:45:38;101374.44;;;-2.39;59.85
40794;BME280;26502;51.886;15.604;2023-04-06T05:50:49;101370.14;;;-2.27;60.01
40794;BME280;26502;51.886;15.604;2023-04-06T05:56:02;101367.14;;;-2.11;60.07
40794;BME280;26502;51.886;15.604;2023-04-06T06:01:08;101361.56;;;-1.93;60.26
40794;BME280;26502;51.886;15.604;2023-04-06T06:06:17;101360.27;;;-1.78;60.33
40794;BME280;26502;51.886;15.604;2023-04-06T06:11:33;101364.70;;;-1.64;60.54
40794;BME280;26502;51.886;15.604;2023-04-06T06:16:40;101365.48;;;-1.35;60.73
40794;BME280;26502;51.886;15.604;2023-04-06T06:21:47;101370.37;;;-0.95;60.80
40794;BME280;26502;51.886;15.604;2023-04-06T06:26:55;101363.05;;;-0.52;60.94
40794;BME280;26502;51.886;15.604;2023-04-06T06:32:03;101362.08;;;-0.11;60.78
40794;BME280;26502;51.886;15.604;2023-04-06T06:37:10;101365.55;;;0.29;60.55
40794;BME280;26502;51.886;15.604;2023-04-06T06:42:16;101368.95;;;0.60;60.09
40794;BME280;26502;51.886;15.604;2023-04-06T06:47:26;101367.17;;;1.05;60.06
40794;BME280;26502;51.886;15.604;2023-04-06T06:52:33;101367.55;;;1.27;59.60
40794;BME280;26502;51.886;15.604;2023-04-06T06:57:39;101368.69;;;1.44;59.36
40794;BME280;26502;51.886;15.604;2023-04-06T07:02:48;101363.13;;;1.81;59.23
40794;BME280;26502;51.886;15.604;2023-04-06T07:07:54;101363.39;;;2.00;58.85
40794;BME280;26502;51.886;15.604;2023-04-06T07:13:01;101361.23;;;2.37;59.05
40794;BME280;26502;51.886;15.604;2023-04-06T07:18:07;101361.52;;;2.97;58.84
40794;BME280;26502;51.886;15.604;2023-04-06T07:23:14;101362.58;;;3.14;58.08
40794;BME280;26502;51.886;15.604;2023-04-06T07:28:20;101358.39;;;3.17;57.91
40794;BME280;26502;51.886;15.604;2023-04-06T07:33:27;101359.27;;;3.18;57.75
40794;BME280;26502;51.886;15.604;2023-04-06T07:38:34;101355.41;;;3.39;57.66
40794;BME280;26502;51.886;15.604;2023-04-06T07:43:41;101354.21;;;3.67;57.52
40794;BME280;26502;51.886;15.604;2023-04-06T07:48:47;101354.19;;;4.28;57.46
40794;BME280;26502;51.886;15.604;2023-04-06T07:53:55;101356.83;;;4.85;56.99
40794;BME280;26502;51.886;15.604;2023-04-06T07:59:02;101360.05;;;5.33;56.28
40794;BME280;26502;51.886;15.604;2023-04-06T08:04:08;101358.11;;;5.29;55.38
40794;BME280;26502;51.886;15.604;2023-04-06T08:09:15;101359.88;;;5.43;55.05
40794;BME280;26502;51.886;15.604;2023-04-06T08:14:21;101355.62;;;5.79;54.95
40794;BME280;26502;51.886;15.604;2023-04-06T08:19:27;101353.98;;;5.98;53.99
40794;BME280;26502;51.886;15.604;2023-04-06T08:24:33;101349.64;;;6.35;53.24
40794;BME280;26502;51.886;15.604;2023-04-06T08:29:40;101348.65;;;6.63;52.59
40794;BME280;26502;51.886;15.604;2023-04-06T08:34:46;101345.31;;;6.86;52.17
40794;BME280;26502;51.886;15.604;2023-04-06T08:39:52;101339.02;;;7.04;51.66
40794;BME280;26502;51.886;15.604;2023-04-06T08:44:59;101341.17;;;7.23;51.25
40794;BME280;26502;51.886;15.604;2023-04-06T08:50:07;101339.77;;;7.43;50.82
40794;BME280;26502;51.886;15.604;2023-04-06T08:55:16;101331.33;;;7.75;50.54
40794;BME280;26502;51.886;15.604;2023-04-06T09:00:23;101330.83;;;7.71;49.23
40794;BME280;26502;51.886;15.604;2023-04-06T09:05:31;101329.55;;;7.40;48.39
40794;BME280;26502;51.886;15.604;2023-04-06T09:10:41;101331.02;;;7.71;48.46
40794;BME280;26502;51.886;15.604;2023-04-06T09:15:48;101321.58;;;7.60;47.61
40794;BME280;26502;51.886;15.604;2023-04-06T09:21:05;101322.42;;;7.98;47.87
40794;BME280;26502;51.886;15.604;2023-04-06T09:26:12;101322.27;;;8.25;47.09
40794;BME280;26502;51.886;15.604;2023-04-06T09:31:24;101319.20;;;8.45;47.04
40794;BME280;26502;51.886;15.604;2023-04-06T09:36:34;101315.19;;;8.39;46.47
40794;BME280;26502;51.886;15.604;2023-04-06T09:41:48;101310.17;;;8.16;45.50
40794;BME280;26502;51.886;15.604;2023-04-06T09:46:55;101310.50;;;8.32;45.68
40794;BME280;26502;51.886;15.604;2023-04-06T09:52:04;101303.95;;;8.74;45.00
40794;BME280;26502;51.886;15.604;2023-04-06T09:57:18;101304.88;;;8.58;44.95
40794;BME280;26502;51.886;15.604;2023-04-06T10:02:34;101296.33;;;8.62;44.56
40794;BME280;26502;51.886;15.604;2023-04-06T10:07:44;101292.66;;;8.93;44.58
40794;BME280;26502;51.886;15.604;2023-04-06T10:12:51;101287.45;;;9.39;44.15
40794;BME280;26502;51.886;15.604;2023-04-06T10:17:58;101285.67;;;9.88;43.66
40794;BME280;26502;51.886;15.604;2023-04-06T10:23:08;101287.17;;;10.01;43.21
40794;BME280;26502;51.886;15.604;2023-04-06T10:28:15;101286.23;;;10.05;42.90
40794;BME280;26502;51.886;15.604;2023-04-06T10:33:26;101280.06;;;10.36;42.86
40794;BME280;26502;51.886;15.604;2023-04-06T10:38:37;101275.19;;;10.49;42.32
40794;BME280;26502;51.886;15.604;2023-04-06T10:43:44;101274.79;;;10.74;41.99
40794;BME280;26502;51.886;15.604;2023-04-06T10:48:50;101270.94;;;10.56;41.32
40794;BME280;26502;51.886;15.604;2023-04-06T10:53:59;101268.19;;;10.67;41.30
40794;BME280;26502;51.886;15.604;2023-04-06T10:59:06;101265.31;;;10.98;41.13
40794;BME280;26502;51.886;15.604;2023-04-06T11:04:17;101264.41;;;11.33;41.14
40794;BME280;26502;51.886;15.604;2023-04-06T11:09:27;101262.22;;;11.62;40.89
40794;BME280;26502;51.886;15.604;2023-04-06T11:14:34;101257.48;;;11.60;40.01
40794;BME280;26502;51.886;15.604;2023-04-06T11:19:40;101253.00;;;11.68;40.04
40794;BME280;26502;51.886;15.604;2023-04-06T11:24:46;101251.36;;;11.96;39.93
40794;BME280;26502;51.886;15.604;2023-04-06T11:29:53;101247.02;;;12.28;39.66
40794;BME280;26502;51.886;15.604;2023-04-06T11:35:02;101244.02;;;12.27;39.17
40794;BME280;26502;51.886;15.604;2023-04-06T11:40:09;101236.02;;;12.44;39.09
40794;BME280;26502;51.886;15.604;2023-04-06T11:45:16;101233.22;;;12.65;38.82
40794;BME280;26502;51.886;15.604;2023-04-06T11:50:23;101228.42;;;12.92;38.54
40794;BME280;26502;51.886;15.604;2023-04-06T11:55:36;101223.34;;;12.73;38.02
40794;BME280;26502;51.886;15.604;2023-04-06T12:00:43;101215.95;;;12.70;38.08
40794;BME280;26502;51.886;15.604;2023-04-06T12:05:50;101211.30;;;12.70;37.65
40794;BME280;26502;51.886;15.604;2023-04-06T12:10:56;101206.36;;;12.85;37.77
40794;BME280;26502;51.886;15.604;2023-04-06T12:16:04;101206.10;;;12.33;37.01
40794;BME280;26502;51.886;15.604;2023-04-06T12:21:10;101207.23;;;12.01;37.01
40794;BME280;26502;51.886;15.604;2023-04-06T12:26:16;101201.27;;;12.33;36.89
40794;BME280;26502;51.886;15.604;2023-04-06T12:31:23;101204.39;;;12.41;36.86
40794;BME280;26502;51.886;15.604;2023-04-06T12:36:31;101194.60;;;12.07;36.50
40794;BME280;26502;51.886;15.604;2023-04-06T12:41:37;101194.90;;;12.26;36.46
40794;BME280;26502;51.886;15.604;2023-04-06T12:46:45;101189.42;;;12.64;36.28
40794;BME280;26502;51.886;15.604;2023-04-06T12:51:52;101177.45;;;12.91;35.68
40794;BME280;26502;51.886;15.604;2023-04-06T12:56:58;101170.73;;;12.63;35.25
40794;BME280;26502;51.886;15.604;2023-04-06T13:02:06;101165.23;;;13.45;35.72
40794;BME280;26502;51.886;15.604;2023-04-06T13:07:12;101163.79;;;13.89;35.45
40794;BME280;26502;51.886;15.604;2023-04-06T13:12:19;101167.41;;;13.34;35.29
40794;BME280;26502;51.886;15.604;2023-04-06T13:17:29;101160.61;;;12.78;34.87
40794;BME280;26502;51.886;15.604;2023-04-06T13:22:37;101158.59;;;12.96;34.95
40794;BME280;26502;51.886;15.604;2023-04-06T13:27:44;101157.55;;;13.55;35.01
40794;BME280;26502;51.886;15.604;2023-04-06T13:32:52;101152.54;;;13.70;34.77
40794;BME280;26502;51.886;15.604;2023-04-06T13:37:59;101146.86;;;13.97;34.65
40794;BME280;26502;51.886;15.604;2023-04-06T13:43:05;101148.17;;;13.33;34.11
40794;BME280;26502;51.886;15.604;2023-04-06T13:48:11;101142.98;;;12.56;34.14
40794;BME280;26502;51.886;15.604;2023-04-06T13:53:18;101143.31;;;11.95;34.14
40794;BME280;26502;51.886;15.604;2023-04-06T13:58:24;101143.80;;;11.67;34.41
40794;BME280;26502;51.886;15.604;2023-04-06T14:03:30;101137.91;;;11.73;34.70
40794;BME280;26502;51.886;15.604;2023-04-06T14:08:36;101124.97;;;12.57;34.60
40794;BME280;26502;51.886;15.604;2023-04-06T14:13:43;101124.61;;;13.24;34.37
40794;BME280;26502;51.886;15.604;2023-04-06T14:18:49;101124.75;;;13.40;33.97
40794;BME280;26502;51.886;15.604;2023-04-06T14:23:55;101117.52;;;13.56;33.81
40794;BME280;26502;51.886;15.604;2023-04-06T14:29:02;101110.67;;;13.96;33.82
40794;BME280;26502;51.886;15.604;2023-04-06T14:34:09;101104.20;;;13.83;33.28
40794;BME280;26502;51.886;15.604;2023-04-06T14:39:17;101100.34;;;13.86;33.72
40794;BME280;26502;51.886;15.604;2023-04-06T14:44:23;101102.05;;;14.10;33.39
40794;BME280;26502;51.886;15.604;2023-04-06T14:49:29;101105.02;;;14.07;33.09
40794;BME280;26502;51.886;15.604;2023-04-06T14:54:36;101102.01;;;13.80;32.86
40794;BME280;26502;51.886;15.604;2023-04-06T14:59:42;101104.29;;;13.85;33.06
40794;BME280;26502;51.886;15.604;2023-04-06T15:04:49;101099.79;;;14.13;33.03
40794;BME280;26502;51.886;15.604;2023-04-06T15:09:55;101092.66;;;14.22;32.93
40794;BME280;26502;51.886;15.604;2023-04-06T15:15:01;101093.89;;;14.40;32.84
40794;BME280;26502;51.886;15.604;2023-04-06T15:20:09;101092.20;;;13.84;32.37
40794;BME280;26502;51.886;15.604;2023-04-06T15:25:16;101095.10;;;13.78;32.68
40794;BME280;26502;51.886;15.604;2023-04-06T15:30:22;101094.62;;;13.86;32.50
40794;BME280;26502;51.886;15.604;2023-04-06T15:35:29;101094.19;;;13.70;32.55
40794;BME280;26502;51.886;15.604;2023-04-06T15:40:35;101088.73;;;13.72;32.43
40794;BME280;26502;51.886;15.604;2023-04-06T15:45:47;101084.65;;;13.58;32.38
40794;BME280;26502;51.886;15.604;2023-04-06T15:50:53;101084.75;;;13.74;32.55
40794;BME280;26502;51.886;15.604;2023-04-06T15:56:02;101082.19;;;13.80;32.67
40794;BME280;26502;51.886;15.604;2023-04-06T16:01:14;101081.33;;;13.88;32.58
40794;BME280;26502;51.886;15.604;2023-04-06T16:06:20;101081.89;;;13.83;32.41
40794;BME280;26502;51.886;15.604;2023-04-06T16:11:27;101079.13;;;13.63;32.41
40794;BME280;26502;51.886;15.604;2023-04-06T16:16:34;101081.85;;;13.47;32.43
40794;BME280;26502;51.886;15.604;2023-04-06T16:21:40;101078.61;;;13.48;32.38
40794;BME280;26502;51.886;15.604;2023-04-06T16:26:47;101080.40;;;13.23;32.43
40794;BME280;26502;51.886;15.604;2023-04-06T16:31:54;101078.41;;;12.79;32.42
40794;BME280;26502;51.886;15.604;2023-04-06T16:37:04;101079.41;;;12.34;32.67
40794;BME280;26502;51.886;15.604;2023-04-06T16:42:10;101080.58;;;11.98;32.95
40794;BME280;26502;51.886;15.604;2023-04-06T16:47:16;101080.98;;;11.78;32.91
40794;BME280;26502;51.886;15.604;2023-04-06T16:52:23;101080.34;;;11.53;33.02
40794;BME280;26502;51.886;15.604;2023-04-06T16:57:29;101090.27;;;11.37;33.47
40794;BME280;26502;51.886;15.604;2023-04-06T17:02:35;101087.55;;;11.13;33.88
40794;BME280;26502;51.886;15.604;2023-04-06T17:07:43;101090.57;;;11.00;34.11
40794;BME280;26502;51.886;15.604;2023-04-06T17:12:49;101086.99;;;10.75;34.22
40794;BME280;26502;51.886;15.604;2023-04-06T17:17:55;101088.43;;;10.53;34.88
40794;BME280;26502;51.886;15.604;2023-04-06T17:23:02;101088.73;;;10.26;35.14
40794;BME280;26502;51.886;15.604;2023-04-06T17:28:08;101086.81;;;10.03;35.45
40794;BME280;26502;51.886;15.604;2023-04-06T17:33:14;101088.11;;;9.76;35.71
40794;BME280;26502;51.886;15.604;2023-04-06T17:38:21;101090.95;;;9.44;36.58
40794;BME280;26502;51.886;15.604;2023-04-06T17:43:28;101096.48;;;9.25;36.77
40794;BME280;26502;51.886;15.604;2023-04-06T17:48:34;101095.83;;;9.13;37.13
40794;BME280;26502;51.886;15.604;2023-04-06T17:53:40;101099.36;;;9.04;37.34
40794;BME280;26502;51.886;15.604;2023-04-06T17:58:47;101101.81;;;8.77;37.67
40794;BME280;26502;51.886;15.604;2023-04-06T18:03:53;101096.37;;;8.44;37.89
40794;BME280;26502;51.886;15.604;2023-04-06T18:09:01;101106.81;;;8.10;38.15
40794;BME280;26502;51.886;15.604;2023-04-06T18:14:08;101112.23;;;7.77;38.47
40794;BME280;26502;51.886;15.604;2023-04-06T18:19:17;101118.11;;;7.61;38.93
40794;BME280;26502;51.886;15.604;2023-04-06T18:24:23;101119.84;;;7.36;39.14
40794;BME280;26502;51.886;15.604;2023-04-06T18:29:30;101120.94;;;7.02;39.50
40794;BME280;26502;51.886;15.604;2023-04-06T18:34:36;101128.07;;;6.77;39.85
40794;BME280;26502;51.886;15.604;2023-04-06T18:39:44;101124.59;;;6.50;40.18
40794;BME280;26502;51.886;15.604;2023-04-06T18:44:50;101130.95;;;6.30;40.58
40794;BME280;26502;51.886;15.604;2023-04-06T18:49:57;101136.45;;;6.24;40.76
40794;BME280;26502;51.886;15.604;2023-04-06T18:55:05;101138.61;;;5.85;40.73
40794;BME280;26502;51.886;15.604;2023-04-06T19:00:14;101140.73;;;5.44;41.45
40794;BME280;26502;51.886;15.604;2023-04-06T19:05:21;101138.69;;;5.28;41.98
40794;BME280;26502;51.886;15.604;2023-04-06T19:10:27;101138.18;;;5.16;42.27
40794;BME280;26502;51.886;15.604;2023-04-06T19:15:34;101140.48;;;5.12;42.49
40794;BME280;26502;51.886;15.604;2023-04-06T19:20:41;101138.42;;;4.94;42.55
40794;BME280;26502;51.886;15.604;2023-04-06T19:25:48;101139.33;;;4.74;42.84
40794;BME280;26502;51.886;15.604;2023-04-06T19:30:55;101136.52;;;4.60;43.09
40794;BME280;26502;51.886;15.604;2023-04-06T19:36:02;101136.52;;;4.43;43.35
40794;BME280;26502;51.886;15.604;2023-04-06T19:41:09;101139.50;;;4.26;43.65
40794;BME280;26502;51.886;15.604;2023-04-06T19:46:16;101141.24;;;4.11;43.76
40794;BME280;26502;51.886;15.604;2023-04-06T19:51:22;101137.00;;;4.02;44.04
40794;BME280;26502;51.886;15.604;2023-04-06T19:56:29;101141.04;;;3.93;44.31
40794;BME280;26502;51.886;15.604;2023-04-06T20:01:35;101139.42;;;3.87;44.50
40794;BME280;26502;51.886;15.604;2023-04-06T20:06:42;101138.73;;;3.78;44.59
40794;BME280;26502;51.886;15.604;2023-04-06T20:11:48;101136.01;;;3.56;44.58
40794;BME280;26502;51.886;15.604;2023-04-06T20:16:55;101146.39;;;3.24;44.96
40794;BME280;26502;51.886;15.604;2023-04-06T20:22:01;101145.33;;;2.92;45.46
40794;BME280;26502;51.886;15.604;2023-04-06T20:27:09;101153.14;;;2.80;45.84
40794;BME280;26502;51.886;15.604;2023-04-06T20:32:15;101152.59;;;2.75;46.06
40794;BME280;26502;51.886;15.604;2023-04-06T20:37:24;101146.77;;;2.67;46.18
40794;BME280;26502;51.886;15.604;2023-04-06T20:42:30;101147.06;;;2.40;46.57
40794;BME280;26502;51.886;15.604;2023-04-06T20:47:36;101135.99;;;2.37;46.87
40794;BME280;26502;51.886;15.604;2023-04-06T20:52:42;101136.69;;;2.38;47.05
40794;BME280;26502;51.886;15.604;2023-04-06T20:57:48;101137.92;;;2.38;47.16
40794;BME280;26502;51.886;15.604;2023-04-06T21:02:55;101135.94;;;2.32;47.23
40794;BME280;26502;51.886;15.604;2023-04-06T21:08:01;101133.14;;;2.32;47.57
40794;BME280;26502;51.886;15.604;2023-04-06T21:13:07;101135.83;;;2.39;47.52
40794;BME280;26502;51.886;15.604;2023-04-06T21:18:13;101135.36;;;2.26;47.48
40794;BME280;26502;51.886;15.604;2023-04-06T21:23:19;101135.80;;;2.16;47.71
40794;BME280;26502;51.886;15.604;2023-04-06T21:28:27;101132.33;;;2.02;48.02
40794;BME280;26502;51.886;15.604;2023-04-06T21:33:33;101137.09;;;2.03;48.33
40794;BME280;26502;51.886;15.604;2023-04-06T21:38:39;101133.34;;;1.97;48.46
40794;BME280;26502;51.886;15.604;2023-04-06T21:43:45;101124.42;;;1.82;48.78
40794;BME280;26502;51.886;15.604;2023-04-06T21:48:51;101126.31;;;1.78;48.99
40794;BME280;26502;51.886;15.604;2023-04-06T21:53:58;101121.79;;;1.81;49.14
40794;BME280;26502;51.886;15.604;2023-04-06T21:59:05;101122.58;;;1.90;49.38
40794;BME280;26502;51.886;15.604;2023-04-06T22:04:11;101114.91;;;1.78;49.10
40794;BME280;26502;51.886;15.604;2023-04-06T22:09:17;101116.80;;;1.59;49.26
40794;BME280;26502;51.886;15.604;2023-04-06T22:14:23;101115.36;;;1.39;49.41
40794;BME280;26502;51.886;15.604;2023-04-06T22:19:31;101112.86;;;1.35;49.91
40794;BME280;26502;51.886;15.604;2023-04-06T22:24:37;101109.81;;;1.44;50.10
40794;BME280;26502;51.886;15.604;2023-04-06T22:29:43;101111.96;;;1.48;50.14
40794;BME280;26502;51.886;15.604;2023-04-06T22:34:50;101103.44;;;1.37;50.27
40794;BME280;26502;51.886;15.604;2023-04-06T22:39:56;101100.66;;;1.40;50.42
40794;BME280;26502;51.886;15.604;2023-04-06T22:45:02;101094.61;;;1.31;50.22
40794;BME280;26502;51.886;15.604;2023-04-06T22:50:10;101088.13;;;1.16;50.40
40794;BME280;26502;51.886;15.604;2023-04-06T22:55:17;101085.02;;;1.19;50.60
40794;BME280;26502;51.886;15.604;2023-04-06T23:00:23;101080.16;;;1.23;50.72
40794;BME280;26502;51.886;15.604;2023-04-06T23:05:29;101078.13;;;1.14;50.71
40794;BME280;26502;51.886;15.604;2023-04-06T23:10:36;101072.85;;;0.97;50.81
40794;BME280;26502;51.886;15.604;2023-04-06T23:15:45;101074.38;;;0.94;51.26
40794;BME280;26502;51.886;15.604;2023-04-06T23:20:51;101075.66;;;0.99;51.68
40794;BME280;26502;51.886;15.604;2023-04-06T23:25:57;101069.57;;;1.14;51.78
40794;BME280;26502;51.886;15.604;2023-04-06T23:31:04;101066.49;;;1.20;51.94
40794;BME280;26502;51.886;15.604;2023-04-06T23:36:11;101064.13;;;1.27;52.16
40794;BME280;26502;51.886;15.604;2023-04-06T23:41:17;101061.48;;;1.42;52.20
40794;BME280;26502;51.886;15.604;2023-04-06T23:46:23;101056.66;;;1.33;52.13
40794;BME280;26502;51.886;15.604;2023-04-06T23:51:30;101057.36;;;1.33;52.69
40794;BME280;26502;51.886;15.604;2023-04-06T23:56:36;101056.06;;;1.41;52.78
